Tisul, Russia
Current Conditions -  °F | °C
As of 11:30 PM on Friday 24 Oct 2014 (Local Time) from UNEE Reporting Station
Moderate Fog Moderate Fog  
Wind Chill: 28°   Ceiling: 300
Heat Index: 34°   Visibility: 0.12mi
Dew Point: 34°   Wind: 7mph
Humidity: 100%   Direction: 150°SSE
Pressure: 29.91"   Gusts: NA
Location:  55.76°N, 88.31°E
Report Text: UNEE 241630Z 15003MPS 0200 R23/0600 FG VV003 01/01 Q1013 NOSIGRMK QBB100 QFE737 23290055
Loading
Personal Weather Stations






























Interactive Weather Map
Tropical Storm Tracking
New forecast layout! Learn more

10-Day Weather Forecast

Advertisements
Track Severe Weather on mobile